createdAt,value
2019-01-08T00:01:47.244Z,6.82
2019-01-08T00:04:16.598Z,6.79
2019-01-08T00:06:45.891Z,6.80
2019-01-08T00:09:15.232Z,6.80
2019-01-08T00:11:44.545Z,6.81
2019-01-08T00:14:13.901Z,6.80
2019-01-08T00:16:43.193Z,6.81
2019-01-08T00:19:12.482Z,6.78
2019-01-08T00:21:41.773Z,6.66
2019-01-08T00:24:11.089Z,6.66
2019-01-08T00:26:40.393Z,6.65
2019-01-08T00:29:09.702Z,6.61
2019-01-08T00:31:38.984Z,6.62
2019-01-08T00:34:08.311Z,6.55
2019-01-08T00:36:37.677Z,6.54
2019-01-08T00:39:07.729Z,6.50
2019-01-08T00:41:37.079Z,6.45
2019-01-08T00:44:06.411Z,6.42
2019-01-08T00:46:35.751Z,6.40
2019-01-08T00:49:05.117Z,6.36
2019-01-08T00:51:34.411Z,6.30
2019-01-08T00:54:03.710Z,6.28
2019-01-08T00:56:33.015Z,6.22
2019-01-08T00:59:02.309Z,6.21
2019-01-08T01:01:31.670Z,6.14
2019-01-08T01:04:01.017Z,6.17
2019-01-08T01:06:30.329Z,6.10
2019-01-08T01:08:59.700Z,6.08
2019-01-08T01:11:28.987Z,6.09
2019-01-08T01:13:58.267Z,6.04
2019-01-08T01:16:27.536Z,6.08
2019-01-08T01:18:56.832Z,6.08
2019-01-08T01:21:26.117Z,6.05
2019-01-08T01:23:55.381Z,6.02
2019-01-08T01:26:24.697Z,6.00
2019-01-08T01:28:59.903Z,6.02
2019-01-08T01:31:23.290Z,5.97
2019-01-08T01:33:52.602Z,6.01
2019-01-08T01:36:21.884Z,5.95
2019-01-08T01:38:51.161Z,5.92
2019-01-08T01:41:20.444Z,5.91
2019-01-08T01:43:49.797Z,5.93
2019-01-08T01:46:19.072Z,5.98
2019-01-08T01:48:48.393Z,5.96
2019-01-08T01:51:17.686Z,5.95
2019-01-08T01:53:46.955Z,6.00
2019-01-08T01:56:16.222Z,5.99
2019-01-08T01:58:45.615Z,5.96
2019-01-08T02:01:14.867Z,6.03
2019-01-08T02:03:44.182Z,6.11
2019-01-08T02:06:13.403Z,6.02
2019-01-08T02:08:42.723Z,6.05
2019-01-08T02:11:12.003Z,6.05
2019-01-08T02:13:41.403Z,6.09
2019-01-08T02:16:10.645Z,6.05
2019-01-08T02:18:39.965Z,6.07
2019-01-08T02:21:09.240Z,6.11
2019-01-08T02:23:38.503Z,6.13
2019-01-08T02:26:07.813Z,6.15
2019-01-08T02:28:37.095Z,6.13
2019-01-08T02:31:06.418Z,6.19
2019-01-08T02:33:35.678Z,6.17
2019-01-08T02:36:04.962Z,6.17
2019-01-08T02:38:34.743Z,6.22
2019-01-08T02:41:06.837Z,6.22
2019-01-08T02:43:36.142Z,6.20
2019-01-08T02:46:05.567Z,6.21
2019-01-08T02:48:34.673Z,6.19
2019-01-08T02:51:03.973Z,6.16
2019-01-08T02:53:33.359Z,6.14
2019-01-08T02:56:02.703Z,6.16
2019-01-08T02:58:32.025Z,6.16
2019-01-08T03:01:01.347Z,6.12
2019-01-08T03:03:30.695Z,6.09
2019-01-08T03:05:59.997Z,6.08
2019-01-08T03:08:29.281Z,6.04
2019-01-08T03:10:58.528Z,6.01
2019-01-08T03:13:27.831Z,6.00
2019-01-08T03:15:57.060Z,6.01
2019-01-08T03:18:26.295Z,6.03
2019-01-08T03:20:55.576Z,6.02
2019-01-08T03:23:24.881Z,5.99
2019-01-08T03:25:54.268Z,6.02
2019-01-08T03:28:23.493Z,5.94
2019-01-08T03:30:52.792Z,5.96
2019-01-08T03:33:22.067Z,6.00
2019-01-08T03:35:51.326Z,5.99
2019-01-08T03:38:20.583Z,6.01
2019-01-08T03:40:49.866Z,6.00
2019-01-08T03:43:19.116Z,5.98
2019-01-08T03:45:48.432Z,5.98
2019-01-08T03:48:17.695Z,5.96
2019-01-08T03:50:47.001Z,5.99
2019-01-08T03:53:16.274Z,5.99
2019-01-08T03:55:45.617Z,5.96
2019-01-08T03:58:14.887Z,5.91
2019-01-08T04:00:44.186Z,5.88
2019-01-08T04:03:13.451Z,5.83
2019-01-08T04:05:42.698Z,5.75
2019-01-08T04:08:12.046Z,5.70
2019-01-08T04:10:41.468Z,5.67
2019-01-08T04:13:10.720Z,5.61
2019-01-08T04:15:39.996Z,5.57
2019-01-08T04:18:09.264Z,5.49
2019-01-08T04:20:38.576Z,5.44
2019-01-08T04:23:07.829Z,5.36
2019-01-08T04:25:37.124Z,5.17
2019-01-08T04:28:06.379Z,4.99
2019-01-08T04:30:35.654Z,4.65
2019-01-08T04:33:05.040Z,4.53
2019-01-08T04:35:34.298Z,4.48
2019-01-08T04:38:03.594Z,4.48
2019-01-08T04:40:32.832Z,4.49
2019-01-08T04:43:02.094Z,4.55
2019-01-08T04:45:31.379Z,4.59
2019-01-08T04:48:00.715Z,4.72
2019-01-08T04:50:30.000Z,4.78
2019-01-08T04:52:59.337Z,4.85
2019-01-08T04:55:28.632Z,4.85
2019-01-08T04:57:57.940Z,4.89
2019-01-08T05:00:27.182Z,4.94
2019-01-08T05:02:56.538Z,4.92
2019-01-08T05:05:25.788Z,4.94
2019-01-08T05:07:55.066Z,4.98
2019-01-08T05:10:24.346Z,4.95
2019-01-08T05:12:53.629Z,5.02
2019-01-08T05:15:22.967Z,4.99
2019-01-08T05:17:52.236Z,4.99
2019-01-08T05:20:21.513Z,5.02
2019-01-08T05:22:52.303Z,5.08
2019-01-08T05:25:21.487Z,5.08
2019-01-08T05:27:50.806Z,5.08
2019-01-08T05:30:20.117Z,5.14
2019-01-08T05:32:49.418Z,5.19
2019-01-08T05:35:18.746Z,5.17
2019-01-08T05:37:48.059Z,5.20
2019-01-08T05:40:17.396Z,5.18
2019-01-08T05:42:46.706Z,5.18
2019-01-08T05:45:15.984Z,5.21
2019-01-08T05:47:45.325Z,5.17
2019-01-08T05:50:14.625Z,5.19
2019-01-08T05:52:43.891Z,5.17
2019-01-08T05:55:13.128Z,5.14
2019-01-08T05:57:42.499Z,5.16
2019-01-08T06:00:16.335Z,5.25
2019-01-08T06:02:41.077Z,5.23
2019-01-08T06:05:10.328Z,5.28
2019-01-08T06:07:39.627Z,5.30
2019-01-08T06:10:09.590Z,5.28
2019-01-08T06:12:38.851Z,5.27
2019-01-08T06:15:08.096Z,5.31
2019-01-08T06:17:37.431Z,5.35
2019-01-08T06:20:06.924Z,5.40
2019-01-08T06:22:36.183Z,5.36
2019-01-08T06:25:05.641Z,5.36
2019-01-08T06:27:34.924Z,5.38
2019-01-08T06:30:04.532Z,5.32
2019-01-08T06:32:33.913Z,5.37
2019-01-08T06:35:03.248Z,5.36
2019-01-08T06:37:32.491Z,5.38
2019-01-08T06:40:01.836Z,5.39
2019-01-08T06:42:31.105Z,5.41
2019-01-08T06:45:00.397Z,5.41
2019-01-08T06:47:30.304Z,5.40
2019-01-08T06:49:59.083Z,5.37
2019-01-08T06:52:28.424Z,5.34
2019-01-08T06:54:57.745Z,5.35
2019-01-08T06:57:27.006Z,5.32
2019-01-08T06:59:56.359Z,5.27
2019-01-08T07:02:25.649Z,5.28
2019-01-08T07:04:54.913Z,5.30
2019-01-08T07:07:24.196Z,5.34
2019-01-08T07:09:53.529Z,5.35
2019-01-08T07:12:22.769Z,5.35
2019-01-08T07:14:52.040Z,5.35
2019-01-08T07:17:21.308Z,5.42
2019-01-08T07:19:50.765Z,5.45
2019-01-08T07:22:20.141Z,5.47
2019-01-08T07:24:49.439Z,5.52
2019-01-08T07:27:18.694Z,5.57
2019-01-08T07:29:47.985Z,5.60
2019-01-08T07:32:17.268Z,5.62
2019-01-08T07:34:46.622Z,5.64
2019-01-08T07:37:16.009Z,5.61
2019-01-08T07:39:45.352Z,5.66
2019-01-08T07:42:14.783Z,5.63
2019-01-08T07:44:44.039Z,5.62
2019-01-08T07:47:13.321Z,5.58
2019-01-08T07:49:42.581Z,5.55
2019-01-08T07:52:11.967Z,5.51
2019-01-08T07:54:41.265Z,5.48
2019-01-08T07:57:10.559Z,5.44
2019-01-08T07:59:39.886Z,5.45
2019-01-08T08:02:09.255Z,5.46
2019-01-08T08:04:38.574Z,5.44
2019-01-08T08:07:07.884Z,5.47
2019-01-08T08:09:37.197Z,5.51
2019-01-08T08:12:06.475Z,5.53
2019-01-08T08:14:35.793Z,5.50
2019-01-08T08:17:05.031Z,5.54
2019-01-08T08:19:34.265Z,5.57
2019-01-08T08:22:03.598Z,5.55
2019-01-08T08:24:32.875Z,5.57
2019-01-08T08:27:02.199Z,5.55
2019-01-08T08:29:31.589Z,5.61
2019-01-08T08:32:00.903Z,5.59
2019-01-08T08:34:30.287Z,5.63
2019-01-08T08:36:59.548Z,5.63
2019-01-08T08:39:28.799Z,5.63
2019-01-08T08:41:58.074Z,5.66
2019-01-08T08:44:27.383Z,5.69
2019-01-08T08:46:56.822Z,5.74
2019-01-08T08:49:26.101Z,5.75
2019-01-08T08:51:55.376Z,5.76
2019-01-08T08:54:24.648Z,5.75
2019-01-08T08:56:54.015Z,5.77
2019-01-08T08:59:23.261Z,5.76
2019-01-08T09:01:52.603Z,5.75
2019-01-08T09:04:21.921Z,5.74
2019-01-08T09:06:51.288Z,5.71
2019-01-08T09:09:20.631Z,5.64
2019-01-08T09:11:49.904Z,5.46
2019-01-08T09:14:19.194Z,5.40
2019-01-08T09:16:48.455Z,5.30
2019-01-08T09:19:17.871Z,5.24
2019-01-08T09:21:47.165Z,5.20
2019-01-08T09:24:16.479Z,5.15
2019-01-08T09:26:45.780Z,5.14
2019-01-08T09:29:15.071Z,5.10
2019-01-08T09:31:44.365Z,5.09
2019-01-08T09:34:13.705Z,5.02
2019-01-08T09:36:43.022Z,5.02
2019-01-08T09:39:12.325Z,4.97
2019-01-08T09:41:41.627Z,4.98
2019-01-08T09:44:10.885Z,4.96
2019-01-08T09:46:40.156Z,4.95
2019-01-08T09:49:09.541Z,4.98
2019-01-08T09:51:38.796Z,4.98
2019-01-08T09:54:08.100Z,4.99
2019-01-08T09:56:37.425Z,4.97
2019-01-08T09:59:06.730Z,4.99
2019-01-08T10:01:36.045Z,5.06
2019-01-08T10:04:05.286Z,5.08
2019-01-08T10:06:34.584Z,5.11
2019-01-08T10:09:04.424Z,5.13
2019-01-08T10:11:33.793Z,5.20
2019-01-08T10:14:03.158Z,5.22
2019-01-08T10:16:32.451Z,5.23
2019-01-08T10:19:01.705Z,5.24
2019-01-08T10:21:31.017Z,5.29
2019-01-08T10:24:02.030Z,5.29
2019-01-08T10:26:29.676Z,5.35
2019-01-08T10:28:59.052Z,5.41
2019-01-08T10:31:32.581Z,5.42
2019-01-08T10:33:57.695Z,5.38
2019-01-08T10:36:26.901Z,5.38
2019-01-08T10:38:56.188Z,5.30
2019-01-08T10:41:25.431Z,5.16
2019-01-08T10:43:54.719Z,5.05
2019-01-08T10:46:23.979Z,4.92
2019-01-08T10:48:53.249Z,4.75
2019-01-08T10:51:22.559Z,4.57
2019-01-08T10:53:51.888Z,4.43
2019-01-08T10:56:21.206Z,4.33
2019-01-08T10:58:50.483Z,4.28
2019-01-08T11:01:20.186Z,4.29
2019-01-08T11:03:49.625Z,4.40
2019-01-08T11:06:18.969Z,4.58
2019-01-08T11:08:48.321Z,4.73
2019-01-08T11:11:17.584Z,4.79
2019-01-08T11:13:46.901Z,4.86
2019-01-08T11:16:16.276Z,4.94
2019-01-08T11:18:45.638Z,5.08
2019-01-08T11:21:14.933Z,5.31
2019-01-08T11:23:44.703Z,5.46
2019-01-08T11:26:13.952Z,5.61
2019-01-08T11:28:43.337Z,5.73
2019-01-08T11:31:12.607Z,5.81
2019-01-08T11:33:41.878Z,5.86
2019-01-08T11:36:11.155Z,5.91
2019-01-08T11:38:40.453Z,5.86
2019-01-08T11:41:09.699Z,5.85
2019-01-08T11:43:38.965Z,5.83
2019-01-08T11:46:08.297Z,5.82
2019-01-08T11:48:37.569Z,5.79
2019-01-08T11:52:10.972Z,-136.59
2019-01-08T12:10:59.797Z,-144.80
2019-01-08T12:16:04.119Z,-144.80
2019-01-08T12:19:54.201Z,-144.80
2019-01-08T12:34:03.387Z,-144.80
2019-01-08T12:36:43.794Z,-144.80
2019-01-08T12:40:46.492Z,-144.80
2019-01-08T13:29:44.661Z,-144.80
2019-01-08T14:43:20.544Z,-144.80
2019-01-08T14:51:14.965Z,-144.80
2019-01-08T15:06:57.785Z,-144.80
2019-01-08T15:09:29.533Z,-143.49
2019-01-08T15:23:18.687Z,-144.80
2019-01-08T15:55:46.662Z,-144.80
2019-01-08T16:09:03.715Z,-144.80
2019-01-08T16:12:58.886Z,-144.80
2019-01-08T16:31:56.255Z,-144.80
2019-01-08T16:35:16.348Z,-144.80
2019-01-08T16:47:06.110Z,4.57
2019-01-08T16:49:35.416Z,4.65
2019-01-08T16:52:04.707Z,4.69
2019-01-08T16:54:34.046Z,4.53
2019-01-08T16:57:03.305Z,4.52
2019-01-08T16:59:32.626Z,4.44
2019-01-08T17:02:01.918Z,4.45
2019-01-08T17:04:31.235Z,4.41
2019-01-08T17:07:00.542Z,4.38
2019-01-08T17:09:29.926Z,4.30
2019-01-08T17:11:59.244Z,4.27
2019-01-08T17:14:28.563Z,4.24
2019-01-08T17:16:57.842Z,4.18
2019-01-08T17:19:27.105Z,4.18
2019-01-08T17:21:56.585Z,4.19
2019-01-08T17:24:25.878Z,4.12
2019-01-08T17:26:55.147Z,4.10
2019-01-08T17:29:24.479Z,4.08
2019-01-08T17:31:53.751Z,4.06
2019-01-08T17:34:23.082Z,4.08
2019-01-08T17:36:52.372Z,4.11
2019-01-08T17:39:21.737Z,4.12
2019-01-08T17:41:51.029Z,4.14
2019-01-08T17:44:20.529Z,4.16
2019-01-08T17:46:50.027Z,4.16
2019-01-08T17:49:19.365Z,4.19
2019-01-08T17:51:48.672Z,4.17
2019-01-08T17:54:18.103Z,4.15
2019-01-08T17:56:47.413Z,4.14
2019-01-08T17:59:18.893Z,4.13
2019-01-08T18:01:56.908Z,4.03
2019-01-08T18:04:26.153Z,4.05
2019-01-08T18:06:55.589Z,4.07
2019-01-08T18:09:24.944Z,4.06
2019-01-08T18:11:54.389Z,4.05
2019-01-08T18:14:23.697Z,4.02
2019-01-08T18:16:53.359Z,4.07
2019-01-08T18:19:22.588Z,4.03
2019-01-08T18:21:51.878Z,4.03
2019-01-08T18:24:21.178Z,4.04
2019-01-08T18:26:50.862Z,4.05
2019-01-08T18:29:20.237Z,4.06
2019-01-08T18:31:49.507Z,4.06
2019-01-08T18:34:18.995Z,4.06
2019-01-08T18:36:48.249Z,4.08
2019-01-08T18:39:17.762Z,4.03
2019-01-08T18:41:48.425Z,4.06
2019-01-08T18:44:17.838Z,4.05
2019-01-08T18:46:47.111Z,3.97
2019-01-08T18:49:19.094Z,3.99
2019-01-08T18:51:48.695Z,3.96
2019-01-08T18:54:18.345Z,3.96
2019-01-08T18:56:47.778Z,3.96
2019-01-08T18:59:17.062Z,3.98
2019-01-08T19:01:46.315Z,3.94
2019-01-08T19:04:15.723Z,3.96
2019-01-08T19:06:45.037Z,3.92
2019-01-08T19:09:26.052Z,3.90
2019-01-08T19:11:55.752Z,3.87
2019-01-08T19:14:28.234Z,3.74
2019-01-08T19:16:57.537Z,3.78
2019-01-08T19:19:26.905Z,3.75
2019-01-08T19:21:56.144Z,3.77
2019-01-08T19:24:25.428Z,3.76
2019-01-08T19:26:54.703Z,3.75
2019-01-08T19:29:24.223Z,3.71
2019-01-08T19:31:53.512Z,3.71
2019-01-08T19:34:22.809Z,3.62
2019-01-08T19:36:52.234Z,3.62
2019-01-08T19:39:21.740Z,3.61
2019-01-08T19:41:51.220Z,3.60
2019-01-08T19:44:20.719Z,3.46
2019-01-08T19:46:50.246Z,3.42
2019-01-08T19:49:19.683Z,3.37
2019-01-08T19:51:49.034Z,3.13
2019-01-08T19:54:18.355Z,2.95
2019-01-08T19:56:47.633Z,2.85
2019-01-08T19:59:17.020Z,2.90
2019-01-08T20:01:46.525Z,2.93
2019-01-08T20:04:17.985Z,2.94
2019-01-08T20:06:45.517Z,2.92
2019-01-08T20:09:14.829Z,2.94
2019-01-08T20:11:44.377Z,2.96
2019-01-08T20:14:13.663Z,2.97
2019-01-08T20:16:43.011Z,2.95
2019-01-08T20:19:12.627Z,2.96
2019-01-08T20:21:42.336Z,2.94
2019-01-08T20:24:15.833Z,2.95
2019-01-08T20:26:45.397Z,2.96
2019-01-08T20:29:23.123Z,2.96
2019-01-08T20:31:49.901Z,2.95
2019-01-08T20:34:26.601Z,2.96
2019-01-08T20:36:48.729Z,2.96
2019-01-08T20:39:18.040Z,2.98
2019-01-08T20:41:47.379Z,3.04
2019-01-08T20:44:16.669Z,3.01
2019-01-08T20:46:45.947Z,3.03
2019-01-08T20:49:15.275Z,3.03
2019-01-08T20:51:44.601Z,2.99
2019-01-08T20:54:13.904Z,2.96
2019-01-08T20:56:43.248Z,2.87
2019-01-08T20:59:12.556Z,2.85
2019-01-08T21:01:41.828Z,3.03
2019-01-08T21:04:11.159Z,2.92
2019-01-08T21:06:40.469Z,2.95
2019-01-08T21:09:09.767Z,2.99
2019-01-08T21:11:39.147Z,3.03
2019-01-08T21:14:08.495Z,3.15
2019-01-08T21:16:37.837Z,3.23
2019-01-08T21:19:07.119Z,3.09
2019-01-08T21:21:39.797Z,3.10
2019-01-08T21:24:09.109Z,3.20
2019-01-08T21:26:38.399Z,3.25
2019-01-08T21:29:07.697Z,3.25
2019-01-08T21:31:37.027Z,3.27
2019-01-08T21:34:06.310Z,3.27
2019-01-08T21:36:35.631Z,3.29
2019-01-08T21:39:06.308Z,3.30
2019-01-08T21:41:38.857Z,3.24
2019-01-08T21:44:05.015Z,3.32
2019-01-08T21:46:34.365Z,3.23
2019-01-08T21:49:03.737Z,3.24
2019-01-08T21:51:35.657Z,3.26
2019-01-08T21:54:05.238Z,3.28
2019-01-08T21:56:34.542Z,3.29
2019-01-08T21:59:03.869Z,3.28
2019-01-08T22:01:33.108Z,3.25
2019-01-08T22:04:02.528Z,3.26
2019-01-08T22:06:31.945Z,3.27
2019-01-08T22:09:01.300Z,3.25
2019-01-08T22:11:30.682Z,3.23
2019-01-08T22:13:59.995Z,3.23
2019-01-08T22:16:29.277Z,3.17
2019-01-08T22:18:58.583Z,3.31
2019-01-08T22:21:27.845Z,3.27
2019-01-08T22:23:57.154Z,3.22
2019-01-08T22:26:26.431Z,3.18
2019-01-08T22:28:55.738Z,3.20
2019-01-08T22:31:24.999Z,3.16
2019-01-08T22:33:54.323Z,2.34
2019-01-08T22:36:23.622Z,3.07
2019-01-08T22:38:52.899Z,3.06
2019-01-08T22:41:22.231Z,3.07
2019-01-08T22:43:51.541Z,3.09
2019-01-08T22:46:20.921Z,3.11
2019-01-08T22:48:50.307Z,3.06
2019-01-08T22:51:19.665Z,3.11
2019-01-08T22:53:48.995Z,3.12
2019-01-08T22:56:18.293Z,3.16
2019-01-08T22:58:47.535Z,3.22
2019-01-08T23:01:20.633Z,3.26
2019-01-08T23:03:49.937Z,3.28
2019-01-08T23:06:19.262Z,3.31
2019-01-08T23:08:48.569Z,3.32
2019-01-08T23:11:17.830Z,3.34
2019-01-08T23:13:47.196Z,3.33
2019-01-08T23:16:16.480Z,3.37
2019-01-08T23:18:45.809Z,3.35
2019-01-08T23:21:15.148Z,3.34
2019-01-08T23:23:44.481Z,3.31
2019-01-08T23:26:13.727Z,3.29
2019-01-08T23:28:43.146Z,3.29
2019-01-08T23:31:12.440Z,3.30
2019-01-08T23:33:41.811Z,3.32
2019-01-08T23:36:11.097Z,3.29
2019-01-08T23:38:40.391Z,3.26
2019-01-08T23:41:09.668Z,3.25
2019-01-08T23:43:38.970Z,3.23
2019-01-08T23:46:08.237Z,3.19
2019-01-08T23:48:37.548Z,3.23
2019-01-08T23:51:06.839Z,3.18
2019-01-08T23:53:39.021Z,3.18
2019-01-08T23:56:09.123Z,3.16
2019-01-08T23:58:38.424Z,3.18
